sensor_id;sensor_type;location;lat;lon;timestamp;P1;durP1;ratioP1;P2;durP2;ratioP2
8958;SDS011;4514;49.476;8.484;2024-03-07T00:00:00;36.73;;;28.50;;
8958;SDS011;4514;49.476;8.484;2024-03-07T00:02:59;37.45;;;28.55;;
8958;SDS011;4514;49.476;8.484;2024-03-07T00:05:45;36.50;;;29.30;;
8958;SDS011;4514;49.476;8.484;2024-03-07T00:08:34;37.83;;;29.70;;
8958;SDS011;4514;49.476;8.484;2024-03-07T00:11:19;38.17;;;29.70;;
8958;SDS011;4514;49.476;8.484;2024-03-07T00:14:05;35.93;;;28.40;;
8958;SDS011;4514;49.476;8.484;2024-03-07T00:16:51;37.77;;;29.33;;
8958;SDS011;4514;49.476;8.484;2024-03-07T00:19:38;37.57;;;29.30;;
8958;SDS011;4514;49.476;8.484;2024-03-07T00:22:24;37.03;;;29.27;;
8958;SDS011;4514;49.476;8.484;2024-03-07T00:25:12;42.00;;;30.23;;
8958;SDS011;4514;49.476;8.484;2024-03-07T00:28:04;35.20;;;28.40;;
8958;SDS011;4514;49.476;8.484;2024-03-07T00:30:50;38.53;;;30.30;;
8958;SDS011;4514;49.476;8.484;2024-03-07T00:33:40;38.93;;;30.47;;
8958;SDS011;4514;49.476;8.484;2024-03-07T00:36:31;42.33;;;29.90;;
8958;SDS011;4514;49.476;8.484;2024-03-07T00:39:21;37.33;;;29.80;;
8958;SDS011;4514;49.476;8.484;2024-03-07T00:42:07;37.10;;;30.13;;
8958;SDS011;4514;49.476;8.484;2024-03-07T00:44:53;38.33;;;29.70;;
8958;SDS011;4514;49.476;8.484;2024-03-07T00:47:39;37.47;;;29.97;;
8958;SDS011;4514;49.476;8.484;2024-03-07T00:50:24;38.60;;;29.87;;
8958;SDS011;4514;49.476;8.484;2024-03-07T00:53:10;38.50;;;29.50;;
8958;SDS011;4514;49.476;8.484;2024-03-07T00:55:58;40.23;;;29.53;;
8958;SDS011;4514;49.476;8.484;2024-03-07T00:58:44;39.90;;;30.40;;
8958;SDS011;4514;49.476;8.484;2024-03-07T01:01:32;36.93;;;29.77;;
8958;SDS011;4514;49.476;8.484;2024-03-07T01:04:19;38.13;;;30.20;;
8958;SDS011;4514;49.476;8.484;2024-03-07T01:07:07;38.90;;;30.23;;
8958;SDS011;4514;49.476;8.484;2024-03-07T01:09:52;37.83;;;30.53;;
8958;SDS011;4514;49.476;8.484;2024-03-07T01:12:39;40.70;;;29.60;;
8958;SDS011;4514;49.476;8.484;2024-03-07T01:15:25;38.00;;;31.03;;
8958;SDS011;4514;49.476;8.484;2024-03-07T01:18:13;36.17;;;29.50;;
8958;SDS011;4514;49.476;8.484;2024-03-07T01:21:02;36.77;;;30.40;;
8958;SDS011;4514;49.476;8.484;2024-03-07T01:23:51;38.73;;;29.50;;
8958;SDS011;4514;49.476;8.484;2024-03-07T01:26:37;37.50;;;31.03;;
8958;SDS011;4514;49.476;8.484;2024-03-07T01:29:22;42.53;;;32.20;;
8958;SDS011;4514;49.476;8.484;2024-03-07T01:32:13;38.33;;;29.67;;
8958;SDS011;4514;49.476;8.484;2024-03-07T01:34:58;40.27;;;30.83;;
8958;SDS011;4514;49.476;8.484;2024-03-07T01:37:44;38.43;;;30.83;;
8958;SDS011;4514;49.476;8.484;2024-03-07T01:40:35;37.77;;;30.33;;
8958;SDS011;4514;49.476;8.484;2024-03-07T01:43:21;38.57;;;30.77;;
8958;SDS011;4514;49.476;8.484;2024-03-07T01:46:06;37.57;;;30.70;;
8958;SDS011;4514;49.476;8.484;2024-03-07T01:48:53;39.83;;;30.93;;
8958;SDS011;4514;49.476;8.484;2024-03-07T01:51:39;39.57;;;30.47;;
8958;SDS011;4514;49.476;8.484;2024-03-07T01:54:28;38.30;;;30.50;;
8958;SDS011;4514;49.476;8.484;2024-03-07T01:57:17;37.97;;;29.37;;
8958;SDS011;4514;49.476;8.484;2024-03-07T02:00:04;36.73;;;29.67;;
8958;SDS011;4514;49.476;8.484;2024-03-07T02:02:52;39.60;;;28.80;;
8958;SDS011;4514;49.476;8.484;2024-03-07T02:05:39;34.10;;;27.67;;
8958;SDS011;4514;49.476;8.484;2024-03-07T02:08:25;33.63;;;26.53;;
8958;SDS011;4514;49.476;8.484;2024-03-07T02:11:11;35.13;;;26.90;;
8958;SDS011;4514;49.476;8.484;2024-03-07T02:14:02;34.40;;;26.63;;
8958;SDS011;4514;49.476;8.484;2024-03-07T02:16:47;33.67;;;27.03;;
8958;SDS011;4514;49.476;8.484;2024-03-07T02:19:33;33.57;;;26.93;;
8958;SDS011;4514;49.476;8.484;2024-03-07T02:22:19;31.37;;;25.77;;
8958;SDS011;4514;49.476;8.484;2024-03-07T02:25:08;33.40;;;26.60;;
8958;SDS011;4514;49.476;8.484;2024-03-07T02:27:56;34.23;;;26.67;;
8958;SDS011;4514;49.476;8.484;2024-03-07T02:30:42;38.80;;;27.30;;
8958;SDS011;4514;49.476;8.484;2024-03-07T02:33:28;34.90;;;27.13;;
8958;SDS011;4514;49.476;8.484;2024-03-07T02:36:16;35.93;;;26.83;;
8958;SDS011;4514;49.476;8.484;2024-03-07T02:39:02;33.63;;;27.20;;
8958;SDS011;4514;49.476;8.484;2024-03-07T02:41:51;33.23;;;26.87;;
8958;SDS011;4514;49.476;8.484;2024-03-07T02:44:37;35.60;;;26.83;;
8958;SDS011;4514;49.476;8.484;2024-03-07T02:47:23;35.80;;;27.80;;
8958;SDS011;4514;49.476;8.484;2024-03-07T02:50:11;33.37;;;27.57;;
8958;SDS011;4514;49.476;8.484;2024-03-07T02:52:57;37.97;;;28.83;;
8958;SDS011;4514;49.476;8.484;2024-03-07T02:55:43;36.37;;;28.40;;
8958;SDS011;4514;49.476;8.484;2024-03-07T02:58:29;35.77;;;27.93;;
8958;SDS011;4514;49.476;8.484;2024-03-07T03:01:17;35.00;;;28.67;;
8958;SDS011;4514;49.476;8.484;2024-03-07T03:04:03;35.07;;;28.13;;
8958;SDS011;4514;49.476;8.484;2024-03-07T03:06:48;39.80;;;27.63;;
8958;SDS011;4514;49.476;8.484;2024-03-07T03:09:36;36.27;;;28.10;;
8958;SDS011;4514;49.476;8.484;2024-03-07T03:12:28;33.67;;;27.70;;
8958;SDS011;4514;49.476;8.484;2024-03-07T03:15:14;36.50;;;27.00;;
8958;SDS011;4514;49.476;8.484;2024-03-07T03:18:05;34.27;;;26.40;;
8958;SDS011;4514;49.476;8.484;2024-03-07T03:20:52;35.10;;;26.30;;
8958;SDS011;4514;49.476;8.484;2024-03-07T03:23:38;34.60;;;25.93;;
8958;SDS011;4514;49.476;8.484;2024-03-07T03:26:26;33.23;;;26.40;;
8958;SDS011;4514;49.476;8.484;2024-03-07T03:29:12;35.13;;;26.67;;
8958;SDS011;4514;49.476;8.484;2024-03-07T03:32:01;34.07;;;26.93;;
8958;SDS011;4514;49.476;8.484;2024-03-07T03:34:47;36.17;;;26.23;;
8958;SDS011;4514;49.476;8.484;2024-03-07T03:37:33;32.30;;;26.13;;
8958;SDS011;4514;49.476;8.484;2024-03-07T03:40:18;35.03;;;27.07;;
8958;SDS011;4514;49.476;8.484;2024-03-07T03:43:06;34.57;;;26.90;;
8958;SDS011;4514;49.476;8.484;2024-03-07T03:45:57;32.87;;;24.67;;
8958;SDS011;4514;49.476;8.484;2024-03-07T03:48:43;35.60;;;26.57;;
8958;SDS011;4514;49.476;8.484;2024-03-07T03:51:28;35.83;;;26.97;;
8958;SDS011;4514;49.476;8.484;2024-03-07T03:54:15;33.20;;;26.03;;
8958;SDS011;4514;49.476;8.484;2024-03-07T03:57:01;33.33;;;25.60;;
8958;SDS011;4514;49.476;8.484;2024-03-07T03:59:48;31.77;;;25.83;;
8958;SDS011;4514;49.476;8.484;2024-03-07T04:02:33;34.83;;;26.67;;
8958;SDS011;4514;49.476;8.484;2024-03-07T04:05:19;32.87;;;25.73;;
8958;SDS011;4514;49.476;8.484;2024-03-07T04:08:06;33.10;;;26.10;;
8958;SDS011;4514;49.476;8.484;2024-03-07T04:10:52;31.53;;;24.23;;
8958;SDS011;4514;49.476;8.484;2024-03-07T04:13:38;31.80;;;24.17;;
8958;SDS011;4514;49.476;8.484;2024-03-07T04:16:24;30.67;;;24.50;;
8958;SDS011;4514;49.476;8.484;2024-03-07T04:19:10;31.30;;;24.77;;
8958;SDS011;4514;49.476;8.484;2024-03-07T04:21:56;31.33;;;24.67;;
8958;SDS011;4514;49.476;8.484;2024-03-07T04:24:45;31.23;;;25.40;;
8958;SDS011;4514;49.476;8.484;2024-03-07T04:27:39;35.67;;;26.60;;
8958;SDS011;4514;49.476;8.484;2024-03-07T04:30:25;33.63;;;25.50;;
8958;SDS011;4514;49.476;8.484;2024-03-07T04:33:13;34.07;;;25.00;;
8958;SDS011;4514;49.476;8.484;2024-03-07T04:36:01;33.97;;;26.07;;
8958;SDS011;4514;49.476;8.484;2024-03-07T04:38:47;30.33;;;24.87;;
8958;SDS011;4514;49.476;8.484;2024-03-07T04:41:33;39.10;;;27.03;;
8958;SDS011;4514;49.476;8.484;2024-03-07T04:44:22;34.03;;;26.63;;
8958;SDS011;4514;49.476;8.484;2024-03-07T04:47:08;35.23;;;27.70;;
8958;SDS011;4514;49.476;8.484;2024-03-07T04:49:55;36.07;;;27.63;;
8958;SDS011;4514;49.476;8.484;2024-03-07T04:52:41;34.80;;;26.77;;
8958;SDS011;4514;49.476;8.484;2024-03-07T04:55:27;36.33;;;27.60;;
8958;SDS011;4514;49.476;8.484;2024-03-07T04:58:12;40.33;;;28.10;;
8958;SDS011;4514;49.476;8.484;2024-03-07T05:01:00;36.37;;;27.77;;
8958;SDS011;4514;49.476;8.484;2024-03-07T05:03:46;36.60;;;27.70;;
8958;SDS011;4514;49.476;8.484;2024-03-07T05:06:34;36.90;;;28.77;;
8958;SDS011;4514;49.476;8.484;2024-03-07T05:09:20;36.77;;;27.60;;
8958;SDS011;4514;49.476;8.484;2024-03-07T05:12:08;37.63;;;27.87;;
8958;SDS011;4514;49.476;8.484;2024-03-07T05:14:54;37.13;;;27.40;;
8958;SDS011;4514;49.476;8.484;2024-03-07T05:17:42;47.80;;;34.40;;
8958;SDS011;4514;49.476;8.484;2024-03-07T05:20:28;36.20;;;28.03;;
8958;SDS011;4514;49.476;8.484;2024-03-07T05:23:14;35.87;;;26.93;;
8958;SDS011;4514;49.476;8.484;2024-03-07T05:26:01;34.27;;;26.57;;
8958;SDS011;4514;49.476;8.484;2024-03-07T05:28:51;33.47;;;25.73;;
8958;SDS011;4514;49.476;8.484;2024-03-07T05:31:40;35.10;;;28.23;;
8958;SDS011;4514;49.476;8.484;2024-03-07T05:34:34;35.03;;;28.17;;
8958;SDS011;4514;49.476;8.484;2024-03-07T05:37:26;35.97;;;28.17;;
8958;SDS011;4514;49.476;8.484;2024-03-07T05:40:12;35.80;;;26.27;;
8958;SDS011;4514;49.476;8.484;2024-03-07T05:42:58;38.33;;;28.40;;
8958;SDS011;4514;49.476;8.484;2024-03-07T05:45:48;36.53;;;29.33;;
8958;SDS011;4514;49.476;8.484;2024-03-07T05:48:34;35.43;;;25.93;;
8958;SDS011;4514;49.476;8.484;2024-03-07T05:51:22;35.03;;;26.37;;
8958;SDS011;4514;49.476;8.484;2024-03-07T05:54:11;35.03;;;28.27;;
8958;SDS011;4514;49.476;8.484;2024-03-07T05:56:58;35.00;;;28.93;;
8958;SDS011;4514;49.476;8.484;2024-03-07T05:59:43;34.67;;;28.23;;
8958;SDS011;4514;49.476;8.484;2024-03-07T06:02:32;36.83;;;28.70;;
8958;SDS011;4514;49.476;8.484;2024-03-07T06:05:18;34.93;;;28.73;;
8958;SDS011;4514;49.476;8.484;2024-03-07T06:08:04;35.20;;;28.17;;
8958;SDS011;4514;49.476;8.484;2024-03-07T06:10:52;36.33;;;28.83;;
8958;SDS011;4514;49.476;8.484;2024-03-07T06:13:38;35.50;;;28.47;;
8958;SDS011;4514;49.476;8.484;2024-03-07T06:16:26;34.27;;;28.83;;
8958;SDS011;4514;49.476;8.484;2024-03-07T06:19:14;37.10;;;31.13;;
8958;SDS011;4514;49.476;8.484;2024-03-07T06:22:03;56.27;;;42.77;;
8958;SDS011;4514;49.476;8.484;2024-03-07T06:24:54;42.37;;;32.50;;
8958;SDS011;4514;49.476;8.484;2024-03-07T06:27:49;34.07;;;28.67;;
8958;SDS011;4514;49.476;8.484;2024-03-07T06:30:35;34.63;;;25.83;;
8958;SDS011;4514;49.476;8.484;2024-03-07T06:33:30;34.83;;;26.27;;
8958;SDS011;4514;49.476;8.484;2024-03-07T06:36:16;34.37;;;26.93;;
8958;SDS011;4514;49.476;8.484;2024-03-07T06:39:02;34.10;;;25.43;;
8958;SDS011;4514;49.476;8.484;2024-03-07T06:41:50;33.50;;;26.13;;
8958;SDS011;4514;49.476;8.484;2024-03-07T06:44:36;35.50;;;26.93;;
8958;SDS011;4514;49.476;8.484;2024-03-07T06:47:22;33.90;;;26.23;;
8958;SDS011;4514;49.476;8.484;2024-03-07T06:50:08;38.90;;;26.73;;
8958;SDS011;4514;49.476;8.484;2024-03-07T06:52:59;36.83;;;26.80;;
8958;SDS011;4514;49.476;8.484;2024-03-07T06:55:45;33.97;;;26.53;;
8958;SDS011;4514;49.476;8.484;2024-03-07T06:58:31;33.00;;;25.97;;
8958;SDS011;4514;49.476;8.484;2024-03-07T07:01:19;33.07;;;26.00;;
8958;SDS011;4514;49.476;8.484;2024-03-07T07:04:05;34.80;;;26.10;;
8958;SDS011;4514;49.476;8.484;2024-03-07T07:06:53;31.10;;;24.80;;
8958;SDS011;4514;49.476;8.484;2024-03-07T07:09:40;33.57;;;24.73;;
8958;SDS011;4514;49.476;8.484;2024-03-07T07:12:27;31.53;;;25.47;;
8958;SDS011;4514;49.476;8.484;2024-03-07T07:15:15;32.60;;;25.47;;
8958;SDS011;4514;49.476;8.484;2024-03-07T07:18:02;33.53;;;24.90;;
8958;SDS011;4514;49.476;8.484;2024-03-07T07:20:51;37.93;;;25.53;;
8958;SDS011;4514;49.476;8.484;2024-03-07T07:23:39;35.07;;;25.97;;
8958;SDS011;4514;49.476;8.484;2024-03-07T07:26:30;32.17;;;24.20;;
8958;SDS011;4514;49.476;8.484;2024-03-07T07:29:17;33.73;;;24.43;;
8958;SDS011;4514;49.476;8.484;2024-03-07T07:32:03;31.40;;;23.27;;
8958;SDS011;4514;49.476;8.484;2024-03-07T07:34:49;32.07;;;24.43;;
8958;SDS011;4514;49.476;8.484;2024-03-07T07:37:35;30.60;;;24.40;;
8958;SDS011;4514;49.476;8.484;2024-03-07T07:40:22;33.53;;;24.90;;
8958;SDS011;4514;49.476;8.484;2024-03-07T07:43:12;28.10;;;24.00;;
8958;SDS011;4514;49.476;8.484;2024-03-07T07:46:00;31.37;;;23.50;;
8958;SDS011;4514;49.476;8.484;2024-03-07T07:48:46;30.57;;;24.20;;
8958;SDS011;4514;49.476;8.484;2024-03-07T07:51:32;28.43;;;24.07;;
8958;SDS011;4514;49.476;8.484;2024-03-07T07:54:17;31.57;;;23.57;;
8958;SDS011;4514;49.476;8.484;2024-03-07T07:57:03;27.67;;;22.47;;
8958;SDS011;4514;49.476;8.484;2024-03-07T07:59:49;26.57;;;21.10;;
8958;SDS011;4514;49.476;8.484;2024-03-07T08:02:38;26.43;;;20.60;;
8958;SDS011;4514;49.476;8.484;2024-03-07T08:05:24;24.33;;;19.23;;
8958;SDS011;4514;49.476;8.484;2024-03-07T08:08:11;24.80;;;18.83;;
8958;SDS011;4514;49.476;8.484;2024-03-07T08:10:59;21.47;;;18.70;;
8958;SDS011;4514;49.476;8.484;2024-03-07T08:13:45;25.00;;;19.37;;
8958;SDS011;4514;49.476;8.484;2024-03-07T08:16:34;23.90;;;19.30;;
8958;SDS011;4514;49.476;8.484;2024-03-07T08:19:20;22.20;;;18.27;;
8958;SDS011;4514;49.476;8.484;2024-03-07T08:22:06;23.43;;;19.63;;
8958;SDS011;4514;49.476;8.484;2024-03-07T08:24:52;20.27;;;17.70;;
8958;SDS011;4514;49.476;8.484;2024-03-07T08:27:38;22.53;;;17.20;;
8958;SDS011;4514;49.476;8.484;2024-03-07T08:30:24;20.07;;;17.97;;
8958;SDS011;4514;49.476;8.484;2024-03-07T08:33:12;21.40;;;17.13;;
8958;SDS011;4514;49.476;8.484;2024-03-07T08:35:59;21.47;;;17.60;;
8958;SDS011;4514;49.476;8.484;2024-03-07T08:38:44;19.70;;;16.97;;
8958;SDS011;4514;49.476;8.484;2024-03-07T08:41:31;21.17;;;17.73;;
8958;SDS011;4514;49.476;8.484;2024-03-07T08:44:22;19.70;;;17.60;;
8958;SDS011;4514;49.476;8.484;2024-03-07T08:47:08;22.17;;;16.73;;
8958;SDS011;4514;49.476;8.484;2024-03-07T08:49:55;20.93;;;17.20;;
8958;SDS011;4514;49.476;8.484;2024-03-07T08:52:41;19.63;;;17.60;;
8958;SDS011;4514;49.476;8.484;2024-03-07T08:55:29;20.10;;;17.27;;
8958;SDS011;4514;49.476;8.484;2024-03-07T08:58:18;20.73;;;16.93;;
8958;SDS011;4514;49.476;8.484;2024-03-07T09:01:03;19.93;;;16.17;;
8958;SDS011;4514;49.476;8.484;2024-03-07T09:03:49;16.97;;;15.17;;
8958;SDS011;4514;49.476;8.484;2024-03-07T09:06:35;18.10;;;15.40;;
8958;SDS011;4514;49.476;8.484;2024-03-07T09:09:21;17.57;;;15.20;;
8958;SDS011;4514;49.476;8.484;2024-03-07T09:12:09;18.23;;;14.53;;
8958;SDS011;4514;49.476;8.484;2024-03-07T09:14:55;15.70;;;14.03;;
8958;SDS011;4514;49.476;8.484;2024-03-07T09:17:41;15.63;;;14.00;;
8958;SDS011;4514;49.476;8.484;2024-03-07T09:20:27;16.73;;;14.20;;
8958;SDS011;4514;49.476;8.484;2024-03-07T09:23:13;16.57;;;14.23;;
8958;SDS011;4514;49.476;8.484;2024-03-07T09:26:00;16.53;;;14.60;;
8958;SDS011;4514;49.476;8.484;2024-03-07T09:28:48;16.83;;;15.00;;
8958;SDS011;4514;49.476;8.484;2024-03-07T09:31:40;18.83;;;15.57;;
8958;SDS011;4514;49.476;8.484;2024-03-07T09:34:28;17.97;;;15.07;;
8958;SDS011;4514;49.476;8.484;2024-03-07T09:37:18;16.93;;;14.73;;
8958;SDS011;4514;49.476;8.484;2024-03-07T09:40:07;18.60;;;14.60;;
8958;SDS011;4514;49.476;8.484;2024-03-07T09:42:56;17.10;;;14.67;;
8958;SDS011;4514;49.476;8.484;2024-03-07T09:45:43;17.13;;;15.30;;
8958;SDS011;4514;49.476;8.484;2024-03-07T09:48:29;16.87;;;15.07;;
8958;SDS011;4514;49.476;8.484;2024-03-07T09:51:14;17.37;;;15.47;;
8958;SDS011;4514;49.476;8.484;2024-03-07T09:54:02;16.53;;;14.77;;
8958;SDS011;4514;49.476;8.484;2024-03-07T09:56:48;17.73;;;15.25;;
8958;SDS011;4514;49.476;8.484;2024-03-07T09:59:38;18.13;;;16.23;;
8958;SDS011;4514;49.476;8.484;2024-03-07T10:02:27;19.53;;;15.60;;
8958;SDS011;4514;49.476;8.484;2024-03-07T10:05:13;18.80;;;16.03;;
8958;SDS011;4514;49.476;8.484;2024-03-07T10:08:03;19.52;;;15.68;;
8958;SDS011;4514;49.476;8.484;2024-03-07T10:10:49;19.17;;;16.30;;
8958;SDS011;4514;49.476;8.484;2024-03-07T10:13:35;18.23;;;15.73;;
8958;SDS011;4514;49.476;8.484;2024-03-07T10:16:23;16.87;;;14.83;;
8958;SDS011;4514;49.476;8.484;2024-03-07T10:19:12;18.80;;;15.80;;
8958;SDS011;4514;49.476;8.484;2024-03-07T10:21:58;21.27;;;16.45;;
8958;SDS011;4514;49.476;8.484;2024-03-07T10:24:53;18.77;;;16.10;;
8958;SDS011;4514;49.476;8.484;2024-03-07T10:27:41;18.30;;;16.40;;
8958;SDS011;4514;49.476;8.484;2024-03-07T10:30:27;17.67;;;15.45;;
8958;SDS011;4514;49.476;8.484;2024-03-07T10:33:13;18.58;;;16.60;;
8958;SDS011;4514;49.476;8.484;2024-03-07T10:35:59;18.13;;;15.57;;
8958;SDS011;4514;49.476;8.484;2024-03-07T10:38:45;20.42;;;16.50;;
8958;SDS011;4514;49.476;8.484;2024-03-07T10:41:33;18.98;;;16.42;;
8958;SDS011;4514;49.476;8.484;2024-03-07T10:44:25;18.88;;;16.77;;
8958;SDS011;4514;49.476;8.484;2024-03-07T10:47:22;20.10;;;17.07;;
8958;SDS011;4514;49.476;8.484;2024-03-07T10:53:07;20.23;;;16.80;;
8958;SDS011;4514;49.476;8.484;2024-03-07T10:59:31;21.70;;;17.33;;
8958;SDS011;4514;49.476;8.484;2024-03-07T11:01:59;20.50;;;16.97;;
8958;SDS011;4514;49.476;8.484;2024-03-07T11:04:52;21.70;;;17.23;;
8958;SDS011;4514;49.476;8.484;2024-03-07T11:07:41;21.10;;;16.97;;
8958;SDS011;4514;49.476;8.484;2024-03-07T11:10:30;18.47;;;16.07;;
8958;SDS011;4514;49.476;8.484;2024-03-07T11:13:20;19.67;;;16.53;;
8958;SDS011;4514;49.476;8.484;2024-03-07T11:16:06;19.37;;;16.53;;
8958;SDS011;4514;49.476;8.484;2024-03-07T11:19:35;19.00;;;16.43;;
8958;SDS011;4514;49.476;8.484;2024-03-07T11:22:07;21.93;;;17.30;;
8958;SDS011;4514;49.476;8.484;2024-03-07T11:25:04;18.87;;;16.20;;
8958;SDS011;4514;49.476;8.484;2024-03-07T11:30:42;22.40;;;17.90;;
8958;SDS011;4514;49.476;8.484;2024-03-07T11:33:28;20.45;;;17.88;;
8958;SDS011;4514;49.476;8.484;2024-03-07T11:36:14;21.30;;;17.55;;
8958;SDS011;4514;49.476;8.484;2024-03-07T11:39:39;20.30;;;17.65;;
8958;SDS011;4514;49.476;8.484;2024-03-07T11:42:29;20.58;;;17.65;;
8958;SDS011;4514;49.476;8.484;2024-03-07T11:45:19;21.63;;;18.98;;
8958;SDS011;4514;49.476;8.484;2024-03-07T11:48:15;22.88;;;18.92;;
8958;SDS011;4514;49.476;8.484;2024-03-07T11:51:01;24.00;;;19.27;;
8958;SDS011;4514;49.476;8.484;2024-03-07T11:53:50;20.63;;;18.33;;
8958;SDS011;4514;49.476;8.484;2024-03-07T11:56:37;23.50;;;18.00;;
8958;SDS011;4514;49.476;8.484;2024-03-07T11:59:22;24.15;;;18.98;;
8958;SDS011;4514;49.476;8.484;2024-03-07T12:02:08;21.98;;;18.63;;
8958;SDS011;4514;49.476;8.484;2024-03-07T12:04:55;22.02;;;18.23;;
8958;SDS011;4514;49.476;8.484;2024-03-07T12:07:41;21.65;;;18.65;;
8958;SDS011;4514;49.476;8.484;2024-03-07T12:10:26;21.80;;;18.35;;
8958;SDS011;4514;49.476;8.484;2024-03-07T12:13:13;22.63;;;18.92;;
8958;SDS011;4514;49.476;8.484;2024-03-07T12:16:05;21.65;;;18.33;;
8958;SDS011;4514;49.476;8.484;2024-03-07T12:18:53;20.98;;;18.50;;
8958;SDS011;4514;49.476;8.484;2024-03-07T12:21:39;19.90;;;17.80;;
8958;SDS011;4514;49.476;8.484;2024-03-07T12:24:26;21.77;;;18.63;;
8958;SDS011;4514;49.476;8.484;2024-03-07T12:27:12;21.45;;;19.15;;
8958;SDS011;4514;49.476;8.484;2024-03-07T12:29:58;23.27;;;18.95;;
8958;SDS011;4514;49.476;8.484;2024-03-07T12:32:53;23.88;;;18.45;;
8958;SDS011;4514;49.476;8.484;2024-03-07T12:35:42;22.13;;;19.30;;
8958;SDS011;4514;49.476;8.484;2024-03-07T12:38:29;22.15;;;18.30;;
8958;SDS011;4514;49.476;8.484;2024-03-07T12:41:23;61.92;;;55.30;;
8958;SDS011;4514;49.476;8.484;2024-03-07T12:44:09;21.08;;;17.23;;
8958;SDS011;4514;49.476;8.484;2024-03-07T12:46:58;18.35;;;16.40;;
8958;SDS011;4514;49.476;8.484;2024-03-07T12:49:44;20.55;;;16.33;;
8958;SDS011;4514;49.476;8.484;2024-03-07T12:52:33;18.52;;;15.57;;
8958;SDS011;4514;49.476;8.484;2024-03-07T12:55:19;16.38;;;14.68;;
8958;SDS011;4514;49.476;8.484;2024-03-07T12:58:07;15.65;;;13.80;;
8958;SDS011;4514;49.476;8.484;2024-03-07T13:00:54;16.73;;;14.20;;
8958;SDS011;4514;49.476;8.484;2024-03-07T13:03:43;15.27;;;13.68;;
8958;SDS011;4514;49.476;8.484;2024-03-07T13:06:29;14.65;;;13.05;;
8958;SDS011;4514;49.476;8.484;2024-03-07T13:09:15;16.05;;;13.63;;
8958;SDS011;4514;49.476;8.484;2024-03-07T13:12:01;15.10;;;13.45;;
8958;SDS011;4514;49.476;8.484;2024-03-07T13:14:48;18.15;;;13.15;;
8958;SDS011;4514;49.476;8.484;2024-03-07T13:17:34;16.58;;;13.68;;
8958;SDS011;4514;49.476;8.484;2024-03-07T13:20:20;14.73;;;13.20;;
8958;SDS011;4514;49.476;8.484;2024-03-07T13:23:11;15.50;;;13.50;;
8958;SDS011;4514;49.476;8.484;2024-03-07T13:25:57;15.40;;;13.65;;
8958;SDS011;4514;49.476;8.484;2024-03-07T13:28:44;14.48;;;12.60;;
8958;SDS011;4514;49.476;8.484;2024-03-07T13:31:30;15.15;;;13.15;;
8958;SDS011;4514;49.476;8.484;2024-03-07T13:34:16;14.70;;;13.18;;
8958;SDS011;4514;49.476;8.484;2024-03-07T13:37:02;15.63;;;13.13;;
8958;SDS011;4514;49.476;8.484;2024-03-07T13:39:49;17.02;;;13.52;;
8958;SDS011;4514;49.476;8.484;2024-03-07T13:42:35;19.10;;;13.80;;
8958;SDS011;4514;49.476;8.484;2024-03-07T13:45:22;16.40;;;13.82;;
8958;SDS011;4514;49.476;8.484;2024-03-07T13:48:10;18.17;;;13.32;;
8958;SDS011;4514;49.476;8.484;2024-03-07T13:50:58;15.77;;;13.73;;
8958;SDS011;4514;49.476;8.484;2024-03-07T13:53:53;14.60;;;13.05;;
8958;SDS011;4514;49.476;8.484;2024-03-07T14:16:43;13.30;;;11.90;;
8958;SDS011;4514;49.476;8.484;2024-03-07T14:31:25;16.30;;;13.85;;
8958;SDS011;4514;49.476;8.484;2024-03-07T14:37:21;14.65;;;13.15;;
8958;SDS011;4514;49.476;8.484;2024-03-07T14:40:09;14.18;;;12.48;;
8958;SDS011;4514;49.476;8.484;2024-03-07T14:42:56;15.18;;;12.90;;
8958;SDS011;4514;49.476;8.484;2024-03-07T14:45:43;14.88;;;12.65;;
8958;SDS011;4514;49.476;8.484;2024-03-07T14:48:29;13.30;;;11.82;;
8958;SDS011;4514;49.476;8.484;2024-03-07T14:51:16;14.05;;;12.65;;
8958;SDS011;4514;49.476;8.484;2024-03-07T14:54:03;15.38;;;12.95;;
8958;SDS011;4514;49.476;8.484;2024-03-07T14:56:51;37.38;;;31.02;;
8958;SDS011;4514;49.476;8.484;2024-03-07T14:59:40;33.15;;;29.60;;
8958;SDS011;4514;49.476;8.484;2024-03-07T15:02:26;15.45;;;13.85;;
8958;SDS011;4514;49.476;8.484;2024-03-07T15:05:17;19.45;;;17.38;;
8958;SDS011;4514;49.476;8.484;2024-03-07T15:08:05;92.18;;;75.38;;
8958;SDS011;4514;49.476;8.484;2024-03-07T15:11:09;82.30;;;69.22;;
8958;SDS011;4514;49.476;8.484;2024-03-07T15:14:02;45.05;;;37.40;;
8958;SDS011;4514;49.476;8.484;2024-03-07T15:16:50;16.20;;;14.20;;
8958;SDS011;4514;49.476;8.484;2024-03-07T15:19:35;14.45;;;12.95;;
8958;SDS011;4514;49.476;8.484;2024-03-07T15:22:21;13.77;;;12.38;;
8958;SDS011;4514;49.476;8.484;2024-03-07T15:25:07;15.32;;;13.02;;
8958;SDS011;4514;49.476;8.484;2024-03-07T15:27:57;13.90;;;12.27;;
8958;SDS011;4514;49.476;8.484;2024-03-07T15:30:44;15.25;;;12.85;;
8958;SDS011;4514;49.476;8.484;2024-03-07T15:33:30;16.30;;;13.15;;
8958;SDS011;4514;49.476;8.484;2024-03-07T15:36:16;13.18;;;11.77;;
8958;SDS011;4514;49.476;8.484;2024-03-07T15:39:03;13.93;;;12.43;;
8958;SDS011;4514;49.476;8.484;2024-03-07T15:42:03;12.57;;;11.27;;
8958;SDS011;4514;49.476;8.484;2024-03-07T15:44:49;13.10;;;11.80;;
8958;SDS011;4514;49.476;8.484;2024-03-07T15:47:37;15.10;;;12.13;;
8958;SDS011;4514;49.476;8.484;2024-03-07T15:50:24;14.82;;;12.57;;
8958;SDS011;4514;49.476;8.484;2024-03-07T15:53:14;43.58;;;38.90;;
8958;SDS011;4514;49.476;8.484;2024-03-07T15:56:00;53.20;;;47.83;;
8958;SDS011;4514;49.476;8.484;2024-03-07T15:58:46;18.38;;;15.82;;
8958;SDS011;4514;49.476;8.484;2024-03-07T16:01:31;23.80;;;21.25;;
8958;SDS011;4514;49.476;8.484;2024-03-07T16:04:19;24.80;;;21.33;;
8958;SDS011;4514;49.476;8.484;2024-03-07T16:07:09;13.23;;;11.82;;
8958;SDS011;4514;49.476;8.484;2024-03-07T16:09:54;24.40;;;20.90;;
8958;SDS011;4514;49.476;8.484;2024-03-07T16:12:40;13.18;;;11.85;;
8958;SDS011;4514;49.476;8.484;2024-03-07T16:15:27;13.30;;;12.00;;
8958;SDS011;4514;49.476;8.484;2024-03-07T16:18:13;13.52;;;12.15;;
8958;SDS011;4514;49.476;8.484;2024-03-07T16:21:02;14.30;;;11.75;;
8958;SDS011;4514;49.476;8.484;2024-03-07T16:23:49;14.18;;;12.30;;
8958;SDS011;4514;49.476;8.484;2024-03-07T16:26:38;33.50;;;25.40;;
8958;SDS011;4514;49.476;8.484;2024-03-07T16:29:24;14.90;;;12.82;;
8958;SDS011;4514;49.476;8.484;2024-03-07T16:32:10;13.25;;;11.75;;
8958;SDS011;4514;49.476;8.484;2024-03-07T16:35:02;14.05;;;11.68;;
8958;SDS011;4514;49.476;8.484;2024-03-07T16:37:54;14.30;;;12.80;;
8958;SDS011;4514;49.476;8.484;2024-03-07T16:40:44;14.30;;;11.70;;
8958;SDS011;4514;49.476;8.484;2024-03-07T16:43:29;13.07;;;11.77;;
8958;SDS011;4514;49.476;8.484;2024-03-07T16:46:15;13.10;;;11.70;;
8958;SDS011;4514;49.476;8.484;2024-03-07T16:49:02;13.88;;;11.95;;
8958;SDS011;4514;49.476;8.484;2024-03-07T16:51:47;12.70;;;11.40;;
8958;SDS011;4514;49.476;8.484;2024-03-07T16:54:33;12.50;;;11.20;;
8958;SDS011;4514;49.476;8.484;2024-03-07T16:57:20;13.07;;;11.73;;
8958;SDS011;4514;49.476;8.484;2024-03-07T17:00:06;12.65;;;11.30;;
8958;SDS011;4514;49.476;8.484;2024-03-07T17:03:03;13.05;;;10.80;;
8958;SDS011;4514;49.476;8.484;2024-03-07T17:05:52;12.85;;;11.50;;
8958;SDS011;4514;49.476;8.484;2024-03-07T17:08:37;12.00;;;10.80;;
8958;SDS011;4514;49.476;8.484;2024-03-07T17:11:23;13.07;;;11.67;;
8958;SDS011;4514;49.476;8.484;2024-03-07T17:14:09;12.65;;;11.30;;
8958;SDS011;4514;49.476;8.484;2024-03-07T17:16:55;12.75;;;11.18;;
8958;SDS011;4514;49.476;8.484;2024-03-07T17:19:41;13.38;;;10.90;;
8958;SDS011;4514;49.476;8.484;2024-03-07T17:22:29;13.15;;;11.63;;
8958;SDS011;4514;49.476;8.484;2024-03-07T17:25:16;12.43;;;10.65;;
8958;SDS011;4514;49.476;8.484;2024-03-07T17:28:02;12.75;;;11.18;;
8958;SDS011;4514;49.476;8.484;2024-03-07T17:30:48;12.20;;;10.90;;
8958;SDS011;4514;49.476;8.484;2024-03-07T17:33:36;14.10;;;11.10;;